sensor_id;sensor_type;location;lat;lon;timestamp;P1;durP1;ratioP1;P2;durP2;ratioP2
70388;SDS011;58659;49.050;8.530;2023-11-22T00:00:06;11.20;;;4.80;;
70388;SDS011;58659;49.050;8.530;2023-11-22T00:02:32;9.67;;;4.40;;
70388;SDS011;58659;49.050;8.530;2023-11-22T00:04:57;8.20;;;4.17;;
70388;SDS011;58659;49.050;8.530;2023-11-22T00:07:23;8.47;;;3.90;;
70388;SDS011;58659;49.050;8.530;2023-11-22T00:09:48;8.80;;;3.90;;
70388;SDS011;58659;49.050;8.530;2023-11-22T00:12:13;10.00;;;4.03;;
70388;SDS011;58659;49.050;8.530;2023-11-22T00:14:39;6.33;;;3.50;;
70388;SDS011;58659;49.050;8.530;2023-11-22T00:17:04;8.43;;;3.60;;
70388;SDS011;58659;49.050;8.530;2023-11-22T00:19:29;7.67;;;3.60;;
70388;SDS011;58659;49.050;8.530;2023-11-22T00:21:55;5.97;;;3.50;;
70388;SDS011;58659;49.050;8.530;2023-11-22T00:24:20;7.97;;;3.60;;
70388;SDS011;58659;49.050;8.530;2023-11-22T00:26:46;7.30;;;3.50;;
70388;SDS011;58659;49.050;8.530;2023-11-22T00:29:11;7.97;;;2.90;;
70388;SDS011;58659;49.050;8.530;2023-11-22T00:31:38;4.97;;;2.40;;
70388;SDS011;58659;49.050;8.530;2023-11-22T00:34:03;5.13;;;2.77;;
70388;SDS011;58659;49.050;8.530;2023-11-22T00:36:28;4.93;;;2.50;;
70388;SDS011;58659;49.050;8.530;2023-11-22T00:38:54;4.40;;;2.07;;
70388;SDS011;58659;49.050;8.530;2023-11-22T00:41:19;4.73;;;2.60;;
70388;SDS011;58659;49.050;8.530;2023-11-22T00:43:45;5.47;;;2.20;;
70388;SDS011;58659;49.050;8.530;2023-11-22T00:46:10;4.60;;;2.70;;
70388;SDS011;58659;49.050;8.530;2023-11-22T00:48:36;5.30;;;2.83;;
70388;SDS011;58659;49.050;8.530;2023-11-22T00:51:01;6.57;;;3.50;;
70388;SDS011;58659;49.050;8.530;2023-11-22T00:53:32;7.80;;;3.00;;
70388;SDS011;58659;49.050;8.530;2023-11-22T00:55:57;6.53;;;3.10;;
70388;SDS011;58659;49.050;8.530;2023-11-22T00:58:22;7.43;;;3.00;;
70388;SDS011;58659;49.050;8.530;2023-11-22T01:00:48;7.90;;;3.40;;
70388;SDS011;58659;49.050;8.530;2023-11-22T01:03:13;7.10;;;3.20;;
70388;SDS011;58659;49.050;8.530;2023-11-22T01:05:39;6.73;;;3.37;;
70388;SDS011;58659;49.050;8.530;2023-11-22T01:08:04;8.93;;;3.60;;
70388;SDS011;58659;49.050;8.530;2023-11-22T01:10:30;8.40;;;3.83;;
70388;SDS011;58659;49.050;8.530;2023-11-22T01:12:55;9.27;;;3.53;;
70388;SDS011;58659;49.050;8.530;2023-11-22T01:15:20;8.53;;;3.90;;
70388;SDS011;58659;49.050;8.530;2023-11-22T01:17:45;7.13;;;3.77;;
70388;SDS011;58659;49.050;8.530;2023-11-22T01:20:13;9.53;;;4.13;;
70388;SDS011;58659;49.050;8.530;2023-11-22T01:22:39;9.60;;;4.43;;
70388;SDS011;58659;49.050;8.530;2023-11-22T01:25:05;8.37;;;4.03;;
70388;SDS011;58659;49.050;8.530;2023-11-22T01:27:30;10.07;;;4.67;;
70388;SDS011;58659;49.050;8.530;2023-11-22T01:29:55;11.90;;;4.43;;
70388;SDS011;58659;49.050;8.530;2023-11-22T01:32:20;14.17;;;4.77;;
70388;SDS011;58659;49.050;8.530;2023-11-22T01:34:46;10.73;;;5.07;;
70388;SDS011;58659;49.050;8.530;2023-11-22T01:37:11;11.47;;;4.90;;
70388;SDS011;58659;49.050;8.530;2023-11-22T01:39:39;8.43;;;4.10;;
70388;SDS011;58659;49.050;8.530;2023-11-22T01:42:05;9.47;;;4.23;;
70388;SDS011;58659;49.050;8.530;2023-11-22T01:44:31;5.07;;;2.73;;
70388;SDS011;58659;49.050;8.530;2023-11-22T01:46:56;5.07;;;2.40;;
70388;SDS011;58659;49.050;8.530;2023-11-22T01:49:22;5.40;;;2.70;;
70388;SDS011;58659;49.050;8.530;2023-11-22T01:51:48;4.67;;;2.40;;
70388;SDS011;58659;49.050;8.530;2023-11-22T01:54:14;4.83;;;2.70;;
70388;SDS011;58659;49.050;8.530;2023-11-22T01:56:40;8.30;;;2.50;;
70388;SDS011;58659;49.050;8.530;2023-11-22T01:59:05;6.77;;;2.90;;
70388;SDS011;58659;49.050;8.530;2023-11-22T02:01:30;3.93;;;2.47;;
70388;SDS011;58659;49.050;8.530;2023-11-22T02:03:56;3.83;;;2.33;;
70388;SDS011;58659;49.050;8.530;2023-11-22T02:06:22;6.80;;;2.60;;
70388;SDS011;58659;49.050;8.530;2023-11-22T02:08:48;5.10;;;2.27;;
70388;SDS011;58659;49.050;8.530;2023-11-22T02:11:16;4.47;;;2.50;;
70388;SDS011;58659;49.050;8.530;2023-11-22T02:13:41;3.83;;;2.57;;
70388;SDS011;58659;49.050;8.530;2023-11-22T02:16:06;4.67;;;2.50;;
70388;SDS011;58659;49.050;8.530;2023-11-22T02:18:32;4.10;;;2.43;;
70388;SDS011;58659;49.050;8.530;2023-11-22T02:20:57;3.80;;;2.20;;
70388;SDS011;58659;49.050;8.530;2023-11-22T02:23:23;4.20;;;2.27;;
70388;SDS011;58659;49.050;8.530;2023-11-22T02:25:48;5.33;;;2.40;;
70388;SDS011;58659;49.050;8.530;2023-11-22T02:28:13;5.47;;;2.60;;
70388;SDS011;58659;49.050;8.530;2023-11-22T02:30:39;3.57;;;2.20;;
70388;SDS011;58659;49.050;8.530;2023-11-22T02:33:04;4.07;;;2.50;;
70388;SDS011;58659;49.050;8.530;2023-11-22T02:35:32;5.63;;;2.60;;
70388;SDS011;58659;49.050;8.530;2023-11-22T02:37:58;4.57;;;2.43;;
70388;SDS011;58659;49.050;8.530;2023-11-22T02:40:24;3.60;;;2.20;;
70388;SDS011;58659;49.050;8.530;2023-11-22T02:42:50;4.20;;;2.20;;
70388;SDS011;58659;49.050;8.530;2023-11-22T02:45:16;4.23;;;2.20;;
70388;SDS011;58659;49.050;8.530;2023-11-22T02:47:42;4.43;;;2.17;;
70388;SDS011;58659;49.050;8.530;2023-11-22T02:50:11;4.47;;;2.37;;
70388;SDS011;58659;49.050;8.530;2023-11-22T02:52:36;5.17;;;2.80;;
70388;SDS011;58659;49.050;8.530;2023-11-22T02:55:02;4.90;;;2.90;;
70388;SDS011;58659;49.050;8.530;2023-11-22T02:57:27;5.17;;;2.90;;
70388;SDS011;58659;49.050;8.530;2023-11-22T02:59:52;4.53;;;2.63;;
70388;SDS011;58659;49.050;8.530;2023-11-22T03:02:18;8.90;;;3.13;;
70388;SDS011;58659;49.050;8.530;2023-11-22T03:04:43;4.57;;;2.30;;
70388;SDS011;58659;49.050;8.530;2023-11-22T03:07:08;3.77;;;2.20;;
70388;SDS011;58659;49.050;8.530;2023-11-22T03:09:34;4.73;;;2.50;;
70388;SDS011;58659;49.050;8.530;2023-11-22T03:11:59;3.40;;;2.10;;
70388;SDS011;58659;49.050;8.530;2023-11-22T03:14:25;3.57;;;2.40;;
70388;SDS011;58659;49.050;8.530;2023-11-22T03:16:50;3.57;;;2.30;;
70388;SDS011;58659;49.050;8.530;2023-11-22T03:19:15;3.20;;;2.10;;
70388;SDS011;58659;49.050;8.530;2023-11-22T03:21:40;2.87;;;1.87;;
70388;SDS011;58659;49.050;8.530;2023-11-22T03:24:09;4.20;;;2.53;;
70388;SDS011;58659;49.050;8.530;2023-11-22T03:26:34;5.90;;;2.63;;
70388;SDS011;58659;49.050;8.530;2023-11-22T03:28:59;3.53;;;2.50;;
70388;SDS011;58659;49.050;8.530;2023-11-22T03:31:25;6.43;;;2.60;;
70388;SDS011;58659;49.050;8.530;2023-11-22T03:33:50;6.07;;;2.80;;
70388;SDS011;58659;49.050;8.530;2023-11-22T03:36:16;4.30;;;2.53;;
70388;SDS011;58659;49.050;8.530;2023-11-22T03:38:41;6.13;;;2.90;;
70388;SDS011;58659;49.050;8.530;2023-11-22T03:41:06;6.40;;;3.23;;
70388;SDS011;58659;49.050;8.530;2023-11-22T03:43:31;7.13;;;3.53;;
70388;SDS011;58659;49.050;8.530;2023-11-22T03:45:57;6.90;;;3.40;;
70388;SDS011;58659;49.050;8.530;2023-11-22T03:48:22;7.13;;;3.50;;
70388;SDS011;58659;49.050;8.530;2023-11-22T03:50:48;7.40;;;3.43;;
70388;SDS011;58659;49.050;8.530;2023-11-22T03:53:13;6.17;;;3.57;;
70388;SDS011;58659;49.050;8.530;2023-11-22T03:55:39;6.03;;;3.50;;
70388;SDS011;58659;49.050;8.530;2023-11-22T03:58:04;6.63;;;3.40;;
70388;SDS011;58659;49.050;8.530;2023-11-22T04:00:29;6.87;;;3.50;;
70388;SDS011;58659;49.050;8.530;2023-11-22T04:02:55;7.83;;;3.50;;
70388;SDS011;58659;49.050;8.530;2023-11-22T04:05:21;7.40;;;3.50;;
70388;SDS011;58659;49.050;8.530;2023-11-22T04:07:47;6.73;;;3.93;;
70388;SDS011;58659;49.050;8.530;2023-11-22T04:10:12;7.27;;;3.60;;
70388;SDS011;58659;49.050;8.530;2023-11-22T04:12:37;6.90;;;4.00;;
70388;SDS011;58659;49.050;8.530;2023-11-22T04:15:03;8.23;;;4.00;;
70388;SDS011;58659;49.050;8.530;2023-11-22T04:17:28;9.40;;;4.17;;
70388;SDS011;58659;49.050;8.530;2023-11-22T04:19:53;7.70;;;3.80;;
70388;SDS011;58659;49.050;8.530;2023-11-22T04:22:18;9.40;;;3.83;;
70388;SDS011;58659;49.050;8.530;2023-11-22T04:24:43;8.30;;;3.63;;
70388;SDS011;58659;49.050;8.530;2023-11-22T04:27:10;8.60;;;3.80;;
70388;SDS011;58659;49.050;8.530;2023-11-22T04:29:36;8.47;;;3.80;;
70388;SDS011;58659;49.050;8.530;2023-11-22T04:32:01;8.50;;;4.27;;
70388;SDS011;58659;49.050;8.530;2023-11-22T04:34:27;9.83;;;3.73;;
70388;SDS011;58659;49.050;8.530;2023-11-22T04:36:52;9.00;;;3.47;;
70388;SDS011;58659;49.050;8.530;2023-11-22T04:39:18;6.53;;;3.63;;
70388;SDS011;58659;49.050;8.530;2023-11-22T04:41:43;6.23;;;3.33;;
70388;SDS011;58659;49.050;8.530;2023-11-22T04:44:08;8.10;;;3.80;;
70388;SDS011;58659;49.050;8.530;2023-11-22T04:46:33;7.60;;;3.67;;
70388;SDS011;58659;49.050;8.530;2023-11-22T04:48:58;7.97;;;3.80;;
70388;SDS011;58659;49.050;8.530;2023-11-22T04:51:24;8.23;;;3.47;;
70388;SDS011;58659;49.050;8.530;2023-11-22T04:53:49;6.40;;;3.50;;
70388;SDS011;58659;49.050;8.530;2023-11-22T04:56:15;7.77;;;3.73;;
70388;SDS011;58659;49.050;8.530;2023-11-22T04:58:41;6.50;;;3.60;;
70388;SDS011;58659;49.050;8.530;2023-11-22T05:01:07;5.93;;;2.83;;
70388;SDS011;58659;49.050;8.530;2023-11-22T05:03:35;6.50;;;3.03;;
70388;SDS011;58659;49.050;8.530;2023-11-22T05:06:00;6.73;;;3.27;;
70388;SDS011;58659;49.050;8.530;2023-11-22T05:08:25;6.87;;;3.40;;
70388;SDS011;58659;49.050;8.530;2023-11-22T05:10:52;9.07;;;3.77;;
70388;SDS011;58659;49.050;8.530;2023-11-22T05:13:17;8.00;;;3.80;;
70388;SDS011;58659;49.050;8.530;2023-11-22T05:15:42;7.57;;;3.40;;
70388;SDS011;58659;49.050;8.530;2023-11-22T05:18:07;6.10;;;3.20;;
70388;SDS011;58659;49.050;8.530;2023-11-22T05:20:33;7.90;;;3.27;;
70388;SDS011;58659;49.050;8.530;2023-11-22T05:22:58;7.33;;;3.60;;
70388;SDS011;58659;49.050;8.530;2023-11-22T05:25:23;8.57;;;3.60;;
70388;SDS011;58659;49.050;8.530;2023-11-22T05:27:49;6.23;;;3.50;;
70388;SDS011;58659;49.050;8.530;2023-11-22T05:30:15;6.70;;;3.03;;
70388;SDS011;58659;49.050;8.530;2023-11-22T05:32:41;5.63;;;3.37;;
70388;SDS011;58659;49.050;8.530;2023-11-22T05:35:07;8.27;;;3.30;;
70388;SDS011;58659;49.050;8.530;2023-11-22T05:37:34;6.27;;;3.27;;
70388;SDS011;58659;49.050;8.530;2023-11-22T05:40:00;6.83;;;3.37;;
70388;SDS011;58659;49.050;8.530;2023-11-22T05:42:25;8.30;;;2.80;;
70388;SDS011;58659;49.050;8.530;2023-11-22T05:44:50;5.73;;;3.00;;
70388;SDS011;58659;49.050;8.530;2023-11-22T05:47:15;5.20;;;3.20;;
70388;SDS011;58659;49.050;8.530;2023-11-22T05:49:43;8.17;;;3.43;;
70388;SDS011;58659;49.050;8.530;2023-11-22T05:52:08;6.33;;;3.37;;
70388;SDS011;58659;49.050;8.530;2023-11-22T05:54:33;6.57;;;3.50;;
70388;SDS011;58659;49.050;8.530;2023-11-22T05:56:58;5.40;;;3.07;;
70388;SDS011;58659;49.050;8.530;2023-11-22T05:59:24;5.40;;;2.97;;
70388;SDS011;58659;49.050;8.530;2023-11-22T06:01:49;7.00;;;3.53;;
70388;SDS011;58659;49.050;8.530;2023-11-22T06:04:14;6.33;;;3.53;;
70388;SDS011;58659;49.050;8.530;2023-11-22T06:06:39;5.17;;;2.97;;
70388;SDS011;58659;49.050;8.530;2023-11-22T06:09:04;5.83;;;3.17;;
70388;SDS011;58659;49.050;8.530;2023-11-22T06:11:32;5.53;;;3.03;;
70388;SDS011;58659;49.050;8.530;2023-11-22T06:13:57;4.73;;;2.87;;
70388;SDS011;58659;49.050;8.530;2023-11-22T06:16:22;6.20;;;2.97;;
70388;SDS011;58659;49.050;8.530;2023-11-22T06:18:47;7.73;;;3.70;;
70388;SDS011;58659;49.050;8.530;2023-11-22T06:21:13;5.53;;;3.20;;
70388;SDS011;58659;49.050;8.530;2023-11-22T06:23:38;6.23;;;3.13;;
70388;SDS011;58659;49.050;8.530;2023-11-22T06:26:03;6.53;;;3.07;;
70388;SDS011;58659;49.050;8.530;2023-11-22T06:28:28;5.63;;;3.40;;
70388;SDS011;58659;49.050;8.530;2023-11-22T06:30:54;4.93;;;2.90;;
70388;SDS011;58659;49.050;8.530;2023-11-22T06:33:19;4.13;;;2.87;;
70388;SDS011;58659;49.050;8.530;2023-11-22T06:35:45;6.63;;;3.03;;
70388;SDS011;58659;49.050;8.530;2023-11-22T06:38:10;4.77;;;2.97;;
70388;SDS011;58659;49.050;8.530;2023-11-22T06:40:35;5.23;;;2.97;;
70388;SDS011;58659;49.050;8.530;2023-11-22T06:43:00;6.53;;;3.23;;
70388;SDS011;58659;49.050;8.530;2023-11-22T06:45:26;8.70;;;3.70;;
70388;SDS011;58659;49.050;8.530;2023-11-22T06:47:51;5.27;;;3.10;;
70388;SDS011;58659;49.050;8.530;2023-11-22T06:50:17;6.63;;;3.60;;
70388;SDS011;58659;49.050;8.530;2023-11-22T06:52:43;5.30;;;3.10;;
70388;SDS011;58659;49.050;8.530;2023-11-22T06:55:08;8.67;;;3.80;;
70388;SDS011;58659;49.050;8.530;2023-11-22T06:57:34;6.13;;;3.70;;
70388;SDS011;58659;49.050;8.530;2023-11-22T07:00:00;7.80;;;3.73;;
70388;SDS011;58659;49.050;8.530;2023-11-22T07:02:26;8.50;;;3.90;;
70388;SDS011;58659;49.050;8.530;2023-11-22T07:04:52;7.73;;;3.90;;
70388;SDS011;58659;49.050;8.530;2023-11-22T07:07:18;6.47;;;3.07;;
70388;SDS011;58659;49.050;8.530;2023-11-22T07:09:44;8.73;;;3.60;;
70388;SDS011;58659;49.050;8.530;2023-11-22T07:12:09;6.10;;;3.37;;
70388;SDS011;58659;49.050;8.530;2023-11-22T07:14:35;5.93;;;3.10;;
70388;SDS011;58659;49.050;8.530;2023-11-22T07:17:00;5.47;;;3.23;;
70388;SDS011;58659;49.050;8.530;2023-11-22T07:19:26;6.23;;;3.20;;
70388;SDS011;58659;49.050;8.530;2023-11-22T07:21:51;6.53;;;3.20;;
70388;SDS011;58659;49.050;8.530;2023-11-22T07:24:16;8.63;;;3.40;;
70388;SDS011;58659;49.050;8.530;2023-11-22T07:26:43;6.53;;;3.40;;
70388;SDS011;58659;49.050;8.530;2023-11-22T07:29:08;6.27;;;3.20;;
70388;SDS011;58659;49.050;8.530;2023-11-22T07:31:34;5.67;;;3.37;;
70388;SDS011;58659;49.050;8.530;2023-11-22T07:34:01;6.30;;;3.47;;
70388;SDS011;58659;49.050;8.530;2023-11-22T07:36:27;6.93;;;3.57;;
70388;SDS011;58659;49.050;8.530;2023-11-22T07:38:53;6.53;;;3.77;;
70388;SDS011;58659;49.050;8.530;2023-11-22T07:41:18;9.07;;;3.70;;
70388;SDS011;58659;49.050;8.530;2023-11-22T07:43:43;7.30;;;3.50;;
70388;SDS011;58659;49.050;8.530;2023-11-22T07:46:09;8.73;;;3.37;;
70388;SDS011;58659;49.050;8.530;2023-11-22T07:48:37;4.83;;;2.87;;
70388;SDS011;58659;49.050;8.530;2023-11-22T07:51:03;4.63;;;2.70;;
70388;SDS011;58659;49.050;8.530;2023-11-22T07:53:28;6.03;;;2.90;;
70388;SDS011;58659;49.050;8.530;2023-11-22T07:55:54;5.53;;;2.53;;
70388;SDS011;58659;49.050;8.530;2023-11-22T07:58:19;6.00;;;3.23;;
70388;SDS011;58659;49.050;8.530;2023-11-22T08:00:45;7.73;;;3.00;;
70388;SDS011;58659;49.050;8.530;2023-11-22T08:03:10;4.57;;;2.80;;
70388;SDS011;58659;49.050;8.530;2023-11-22T08:05:36;22.07;;;6.77;;
70388;SDS011;58659;49.050;8.530;2023-11-22T08:08:04;19.73;;;6.37;;
70388;SDS011;58659;49.050;8.530;2023-11-22T08:10:33;26.33;;;7.87;;
70388;SDS011;58659;49.050;8.530;2023-11-22T08:12:59;21.20;;;7.43;;
70388;SDS011;58659;49.050;8.530;2023-11-22T08:15:24;19.73;;;6.67;;
70388;SDS011;58659;49.050;8.530;2023-11-22T08:17:50;14.47;;;5.60;;
70388;SDS011;58659;49.050;8.530;2023-11-22T08:20:15;16.73;;;6.13;;
70388;SDS011;58659;49.050;8.530;2023-11-22T08:22:43;16.03;;;5.20;;
70388;SDS011;58659;49.050;8.530;2023-11-22T08:25:10;11.43;;;4.77;;
70388;SDS011;58659;49.050;8.530;2023-11-22T08:27:37;11.20;;;4.60;;
70388;SDS011;58659;49.050;8.530;2023-11-22T08:30:03;12.30;;;5.47;;
70388;SDS011;58659;49.050;8.530;2023-11-22T08:32:30;15.50;;;5.53;;
70388;SDS011;58659;49.050;8.530;2023-11-22T08:34:56;13.50;;;5.40;;
70388;SDS011;58659;49.050;8.530;2023-11-22T08:37:21;9.70;;;4.73;;
70388;SDS011;58659;49.050;8.530;2023-11-22T08:39:46;7.00;;;3.90;;
70388;SDS011;58659;49.050;8.530;2023-11-22T08:42:12;7.27;;;3.90;;
70388;SDS011;58659;49.050;8.530;2023-11-22T08:45:21;6.07;;;3.23;;
70388;SDS011;58659;49.050;8.530;2023-11-22T08:47:45;6.17;;;2.97;;
70388;SDS011;58659;49.050;8.530;2023-11-22T08:56:54;5.07;;;2.60;;
70388;SDS011;58659;49.050;8.530;2023-11-22T08:59:49;3.40;;;2.63;;
70388;SDS011;58659;49.050;8.530;2023-11-22T09:02:25;6.17;;;2.87;;
70388;SDS011;58659;49.050;8.530;2023-11-22T09:11:02;7.77;;;3.17;;
70388;SDS011;58659;49.050;8.530;2023-11-22T09:14:13;7.10;;;2.80;;
70388;SDS011;58659;49.050;8.530;2023-11-22T09:17:02;5.27;;;2.47;;
70388;SDS011;58659;49.050;8.530;2023-11-22T09:19:39;5.17;;;2.53;;
70388;SDS011;58659;49.050;8.530;2023-11-22T09:25:39;4.80;;;2.30;;
70388;SDS011;58659;49.050;8.530;2023-11-22T09:28:35;4.30;;;2.57;;
70388;SDS011;58659;49.050;8.530;2023-11-22T09:37:11;4.13;;;2.20;;
70388;SDS011;58659;49.050;8.530;2023-11-22T09:39:36;3.63;;;2.13;;
70388;SDS011;58659;49.050;8.530;2023-11-22T09:42:01;3.83;;;2.10;;
70388;SDS011;58659;49.050;8.530;2023-11-22T09:44:27;4.03;;;2.47;;
70388;SDS011;58659;49.050;8.530;2023-11-22T09:46:52;4.30;;;2.60;;
70388;SDS011;58659;49.050;8.530;2023-11-22T09:49:20;5.60;;;2.53;;
70388;SDS011;58659;49.050;8.530;2023-11-22T09:51:48;3.63;;;2.10;;
70388;SDS011;58659;49.050;8.530;2023-11-22T09:54:13;3.27;;;2.23;;
70388;SDS011;58659;49.050;8.530;2023-11-22T09:56:40;5.80;;;2.03;;
70388;SDS011;58659;49.050;8.530;2023-11-22T09:59:06;3.17;;;2.30;;
70388;SDS011;58659;49.050;8.530;2023-11-22T10:01:32;5.67;;;2.60;;
70388;SDS011;58659;49.050;8.530;2023-11-22T10:04:04;3.97;;;2.20;;
70388;SDS011;58659;49.050;8.530;2023-11-22T10:06:32;5.47;;;2.50;;
70388;SDS011;58659;49.050;8.530;2023-11-22T10:09:00;6.23;;;2.30;;
70388;SDS011;58659;49.050;8.530;2023-11-22T10:11:26;5.60;;;2.40;;
70388;SDS011;58659;49.050;8.530;2023-11-22T10:13:51;4.80;;;2.40;;
70388;SDS011;58659;49.050;8.530;2023-11-22T10:16:17;3.90;;;2.60;;
70388;SDS011;58659;49.050;8.530;2023-11-22T10:18:43;3.47;;;2.10;;
70388;SDS011;58659;49.050;8.530;2023-11-22T10:21:18;5.90;;;2.50;;
70388;SDS011;58659;49.050;8.530;2023-11-22T10:23:44;4.70;;;2.80;;
70388;SDS011;58659;49.050;8.530;2023-11-22T10:26:09;4.57;;;2.17;;
70388;SDS011;58659;49.050;8.530;2023-11-22T10:28:34;4.97;;;1.93;;
70388;SDS011;58659;49.050;8.530;2023-11-22T10:30:59;3.97;;;2.20;;
70388;SDS011;58659;49.050;8.530;2023-11-22T10:33:25;3.87;;;2.43;;
70388;SDS011;58659;49.050;8.530;2023-11-22T10:35:51;4.80;;;3.00;;
70388;SDS011;58659;49.050;8.530;2023-11-22T10:38:18;5.33;;;2.90;;
70388;SDS011;58659;49.050;8.530;2023-11-22T10:40:43;5.00;;;3.00;;
70388;SDS011;58659;49.050;8.530;2023-11-22T10:43:16;4.63;;;2.30;;
70388;SDS011;58659;49.050;8.530;2023-11-22T10:45:42;4.13;;;2.07;;
70388;SDS011;58659;49.050;8.530;2023-11-22T10:48:14;5.20;;;2.17;;
70388;SDS011;58659;49.050;8.530;2023-11-22T10:50:41;5.20;;;2.30;;
70388;SDS011;58659;49.050;8.530;2023-11-22T10:53:06;8.63;;;4.30;;
70388;SDS011;58659;49.050;8.530;2023-11-22T10:55:32;6.47;;;3.50;;
70388;SDS011;58659;49.050;8.530;2023-11-22T10:58:04;5.37;;;2.77;;
70388;SDS011;58659;49.050;8.530;2023-11-22T11:00:32;4.70;;;2.53;;
70388;SDS011;58659;49.050;8.530;2023-11-22T11:03:03;3.57;;;2.20;;
70388;SDS011;58659;49.050;8.530;2023-11-22T11:05:31;5.50;;;2.50;;
70388;SDS011;58659;49.050;8.530;2023-11-22T11:08:00;4.50;;;2.70;;
70388;SDS011;58659;49.050;8.530;2023-11-22T11:10:27;5.33;;;2.73;;
70388;SDS011;58659;49.050;8.530;2023-11-22T11:12:53;6.23;;;2.53;;
70388;SDS011;58659;49.050;8.530;2023-11-22T11:15:18;6.77;;;3.00;;
70388;SDS011;58659;49.050;8.530;2023-11-22T11:17:44;4.90;;;2.70;;
70388;SDS011;58659;49.050;8.530;2023-11-22T11:20:13;4.63;;;2.60;;
70388;SDS011;58659;49.050;8.530;2023-11-22T11:22:40;3.97;;;2.37;;
70388;SDS011;58659;49.050;8.530;2023-11-22T11:25:05;5.03;;;2.40;;
70388;SDS011;58659;49.050;8.530;2023-11-22T11:27:34;4.60;;;2.33;;
70388;SDS011;58659;49.050;8.530;2023-11-22T11:32:47;4.20;;;2.50;;
70388;SDS011;58659;49.050;8.530;2023-11-22T11:35:17;4.43;;;2.37;;
70388;SDS011;58659;49.050;8.530;2023-11-22T11:37:46;5.33;;;2.60;;
70388;SDS011;58659;49.050;8.530;2023-11-22T11:40:31;3.77;;;2.47;;
70388;SDS011;58659;49.050;8.530;2023-11-22T11:42:56;5.67;;;2.83;;
70388;SDS011;58659;49.050;8.530;2023-11-22T11:45:21;4.57;;;2.63;;
70388;SDS011;58659;49.050;8.530;2023-11-22T11:47:46;3.40;;;2.20;;
70388;SDS011;58659;49.050;8.530;2023-11-22T11:50:11;7.17;;;2.83;;
70388;SDS011;58659;49.050;8.530;2023-11-22T11:52:38;7.00;;;3.37;;
70388;SDS011;58659;49.050;8.530;2023-11-22T11:55:03;7.33;;;2.53;;
70388;SDS011;58659;49.050;8.530;2023-11-22T11:57:30;4.23;;;2.30;;
70388;SDS011;58659;49.050;8.530;2023-11-22T11:59:56;5.13;;;2.80;;
70388;SDS011;58659;49.050;8.530;2023-11-22T12:02:21;4.47;;;2.57;;
70388;SDS011;58659;49.050;8.530;2023-11-22T12:04:46;5.50;;;3.00;;
70388;SDS011;58659;49.050;8.530;2023-11-22T12:07:12;3.90;;;2.47;;
70388;SDS011;58659;49.050;8.530;2023-11-22T12:09:37;4.70;;;2.70;;
70388;SDS011;58659;49.050;8.530;2023-11-22T12:12:08;4.50;;;2.80;;
70388;SDS011;58659;49.050;8.530;2023-11-22T12:14:37;4.07;;;2.30;;
70388;SDS011;58659;49.050;8.530;2023-11-22T12:17:22;7.70;;;3.07;;
70388;SDS011;58659;49.050;8.530;2023-11-22T12:20:22;5.60;;;2.90;;
70388;SDS011;58659;49.050;8.530;2023-11-22T12:22:50;5.93;;;3.03;;
70388;SDS011;58659;49.050;8.530;2023-11-22T12:25:16;4.10;;;2.43;;
70388;SDS011;58659;49.050;8.530;2023-11-22T12:27:41;4.50;;;2.43;;
70388;SDS011;58659;49.050;8.530;2023-11-22T12:30:07;4.83;;;2.70;;
70388;SDS011;58659;49.050;8.530;2023-11-22T12:32:33;9.17;;;3.43;;
70388;SDS011;58659;49.050;8.530;2023-11-22T12:34:58;5.73;;;2.83;;
70388;SDS011;58659;49.050;8.530;2023-11-22T12:37:24;5.97;;;2.77;;
70388;SDS011;58659;49.050;8.530;2023-11-22T12:39:50;4.80;;;2.80;;
70388;SDS011;58659;49.050;8.530;2023-11-22T12:42:17;4.73;;;2.90;;
70388;SDS011;58659;49.050;8.530;2023-11-22T12:47:14;4.23;;;2.90;;
70388;SDS011;58659;49.050;8.530;2023-11-22T12:49:44;6.00;;;2.20;;
70388;SDS011;58659;49.050;8.530;2023-11-22T12:52:12;4.77;;;2.57;;
70388;SDS011;58659;49.050;8.530;2023-11-22T12:54:38;4.23;;;2.33;;
70388;SDS011;58659;49.050;8.530;2023-11-22T12:57:09;3.23;;;2.23;;
70388;SDS011;58659;49.050;8.530;2023-11-22T12:59:35;4.57;;;2.40;;
70388;SDS011;58659;49.050;8.530;2023-11-22T13:02:01;4.37;;;2.50;;
70388;SDS011;58659;49.050;8.530;2023-11-22T13:04:27;4.37;;;2.60;;
70388;SDS011;58659;49.050;8.530;2023-11-22T13:06:54;5.13;;;2.40;;
70388;SDS011;58659;49.050;8.530;2023-11-22T13:09:19;4.77;;;2.50;;
70388;SDS011;58659;49.050;8.530;2023-11-22T13:11:45;5.50;;;2.70;;
70388;SDS011;58659;49.050;8.530;2023-11-22T13:14:10;4.63;;;2.50;;
70388;SDS011;58659;49.050;8.530;2023-11-22T13:16:39;4.07;;;2.03;;
70388;SDS011;58659;49.050;8.530;2023-11-22T13:19:04;4.23;;;2.60;;
70388;SDS011;58659;49.050;8.530;2023-11-22T13:21:29;4.63;;;2.60;;
70388;SDS011;58659;49.050;8.530;2023-11-22T13:23:56;3.93;;;2.53;;
70388;SDS011;58659;49.050;8.530;2023-11-22T13:26:22;4.13;;;2.43;;
70388;SDS011;58659;49.050;8.530;2023-11-22T13:28:47;5.67;;;2.67;;
70388;SDS011;58659;49.050;8.530;2023-11-22T13:31:12;4.10;;;2.50;;
70388;SDS011;58659;49.050;8.530;2023-11-22T13:33:39;6.77;;;2.80;;
70388;SDS011;58659;49.050;8.530;2023-11-22T13:36:08;7.70;;;2.43;;
70388;SDS011;58659;49.050;8.530;2023-11-22T13:38:34;5.10;;;2.70;;
70388;SDS011;58659;49.050;8.530;2023-11-22T13:40:59;4.60;;;2.13;;
70388;SDS011;58659;49.050;8.530;2023-11-22T13:43:24;4.90;;;2.77;;
70388;SDS011;58659;49.050;8.530;2023-11-22T13:45:50;4.10;;;2.67;;
70388;SDS011;58659;49.050;8.530;2023-11-22T13:48:16;5.70;;;2.60;;
70388;SDS011;58659;49.050;8.530;2023-11-22T13:50:41;6.43;;;2.97;;
70388;SDS011;58659;49.050;8.530;2023-11-22T13:53:07;5.13;;;2.50;;
70388;SDS011;58659;49.050;8.530;2023-11-22T13:55:35;7.73;;;3.20;;
70388;SDS011;58659;49.050;8.530;2023-11-22T13:58:02;5.53;;;2.83;;
70388;SDS011;58659;49.050;8.530;2023-11-22T14:00:28;5.67;;;2.90;;
70388;SDS011;58659;49.050;8.530;2023-11-22T14:02:58;8.43;;;3.57;;
70388;SDS011;58659;49.050;8.530;2023-11-22T14:05:29;6.33;;;3.20;;
70388;SDS011;58659;49.050;8.530;2023-11-22T14:07:54;5.63;;;3.07;;
70388;SDS011;58659;49.050;8.530;2023-11-22T14:10:20;19.57;;;6.27;;
70388;SDS011;58659;49.050;8.530;2023-11-22T14:12:50;6.50;;;3.67;;
70388;SDS011;58659;49.050;8.530;2023-11-22T14:15:16;4.73;;;2.73;;
70388;SDS011;58659;49.050;8.530;2023-11-22T14:17:41;4.93;;;2.57;;
70388;SDS011;58659;49.050;8.530;2023-11-22T14:22:34;6.60;;;2.80;;
70388;SDS011;58659;49.050;8.530;2023-11-22T14:24:59;6.20;;;2.77;;
70388;SDS011;58659;49.050;8.530;2023-11-22T14:27:25;4.67;;;2.60;;
70388;SDS011;58659;49.050;8.530;2023-11-22T14:29:52;4.07;;;2.37;;
70388;SDS011;58659;49.050;8.530;2023-11-22T14:32:18;5.00;;;2.37;;
70388;SDS011;58659;49.050;8.530;2023-11-22T14:34:44;3.73;;;2.23;;
70388;SDS011;58659;49.050;8.530;2023-11-22T14:37:10;5.43;;;2.70;;
70388;SDS011;58659;49.050;8.530;2023-11-22T14:39:37;5.00;;;2.53;;
70388;SDS011;58659;49.050;8.530;2023-11-22T14:42:31;5.33;;;2.90;;
70388;SDS011;58659;49.050;8.530;2023-11-22T14:45:14;4.57;;;2.60;;
70388;SDS011;58659;49.050;8.530;2023-11-22T14:47:46;5.90;;;2.80;;
70388;SDS011;58659;49.050;8.530;2023-11-22T14:50:36;7.13;;;2.80;;
70388;SDS011;58659;49.050;8.530;2023-11-22T14:53:06;7.67;;;3.00;;
70388;SDS011;58659;49.050;8.530;2023-11-22T14:55:50;7.50;;;3.47;;
70388;SDS011;58659;49.050;8.530;2023-11-22T15:01:57;5.80;;;2.80;;
70388;SDS011;58659;49.050;8.530;2023-11-22T15:04:51;3.03;;;2.20;;
70388;SDS011;58659;49.050;8.530;2023-11-22T15:07:20;5.13;;;2.50;;
70388;SDS011;58659;49.050;8.530;2023-11-22T15:09:59;8.47;;;4.13;;
70388;SDS011;58659;49.050;8.530;2023-11-22T15:13:16;8.30;;;4.03;;
70388;SDS011;58659;49.050;8.530;2023-11-22T15:15:46;8.83;;;3.57;;
70388;SDS011;58659;49.050;8.530;2023-11-22T15:18:12;13.37;;;4.67;;
70388;SDS011;58659;49.050;8.530;2023-11-22T15:20:37;10.30;;;4.17;;